sensor_id;sensor_type;location;lat;lon;timestamp;pressure;altitude;pressure_sealevel;temperature;humidity
6345;BME280;3205;42.666;23.264;2023-04-08T00:02:10;94465.91;;;5.52;nan
6345;BME280;3205;42.666;23.264;2023-04-08T00:04:36;94467.78;;;5.52;nan
6345;BME280;3205;42.666;23.264;2023-04-08T00:07:02;94467.00;;;5.51;nan
6345;BME280;3205;42.666;23.264;2023-04-08T00:09:29;94462.53;;;5.52;nan
6345;BME280;3205;42.666;23.264;2023-04-08T00:11:55;94466.69;;;5.53;nan
6345;BME280;3205;42.666;23.264;2023-04-08T00:14:22;94471.75;;;5.49;nan
6345;BME280;3205;42.666;23.264;2023-04-08T00:16:48;94464.63;;;5.41;nan
6345;BME280;3205;42.666;23.264;2023-04-08T00:19:14;94457.22;;;5.43;nan
6345;BME280;3205;42.666;23.264;2023-04-08T00:21:40;94456.94;;;5.45;nan
6345;BME280;3205;42.666;23.264;2023-04-08T00:24:06;94455.22;;;5.40;nan
6345;BME280;3205;42.666;23.264;2023-04-08T00:26:32;94455.91;;;5.32;nan
6345;BME280;3205;42.666;23.264;2023-04-08T00:28:58;94451.63;;;5.36;nan
6345;BME280;3205;42.666;23.264;2023-04-08T00:31:25;94452.41;;;5.37;nan
6345;BME280;3205;42.666;23.264;2023-04-08T00:33:51;94456.97;;;5.31;nan
6345;BME280;3205;42.666;23.264;2023-04-08T00:36:17;94452.72;;;5.35;nan
6345;BME280;3205;42.666;23.264;2023-04-08T00:38:43;94454.72;;;5.38;nan
6345;BME280;3205;42.666;23.264;2023-04-08T00:41:09;94460.75;;;5.39;nan
6345;BME280;3205;42.666;23.264;2023-04-08T00:43:35;94457.16;;;5.35;nan
6345;BME280;3205;42.666;23.264;2023-04-08T00:46:02;94456.09;;;5.36;nan
6345;BME280;3205;42.666;23.264;2023-04-08T00:48:30;94456.09;;;5.36;nan
6345;BME280;3205;42.666;23.264;2023-04-08T00:50:56;94453.69;;;5.48;nan
6345;BME280;3205;42.666;23.264;2023-04-08T00:53:22;94457.97;;;5.35;nan
6345;BME280;3205;42.666;23.264;2023-04-08T00:55:48;94460.75;;;5.39;nan
6345;BME280;3205;42.666;23.264;2023-04-08T00:58:16;94458.50;;;5.46;nan
6345;BME280;3205;42.666;23.264;2023-04-08T01:00:46;94466.41;;;5.54;nan
6345;BME280;3205;42.666;23.264;2023-04-08T01:03:21;94465.38;;;5.42;nan
6345;BME280;3205;42.666;23.264;2023-04-08T01:05:55;94463.78;;;5.32;nan
6345;BME280;3205;42.666;23.264;2023-04-08T01:08:26;94459.59;;;5.31;nan
6345;BME280;3205;42.666;23.264;2023-04-08T01:10:58;94468.72;;;5.34;nan
6345;BME280;3205;42.666;23.264;2023-04-08T01:13:29;94470.28;;;5.35;nan
6345;BME280;3205;42.666;23.264;2023-04-08T01:15:56;94468.44;;;5.35;nan
6345;BME280;3205;42.666;23.264;2023-04-08T01:18:23;94476.94;;;5.41;nan
6345;BME280;3205;42.666;23.264;2023-04-08T01:20:50;94465.91;;;5.30;nan
6345;BME280;3205;42.666;23.264;2023-04-08T01:23:23;94467.28;;;5.28;nan
6345;BME280;3205;42.666;23.264;2023-04-08T01:25:50;94461.81;;;5.38;nan
6345;BME280;3205;42.666;23.264;2023-04-08T01:28:18;94467.16;;;5.33;nan
6345;BME280;3205;42.666;23.264;2023-04-08T01:30:46;94465.19;;;5.38;nan
6345;BME280;3205;42.666;23.264;2023-04-08T01:33:15;94471.25;;;5.39;nan
6345;BME280;3205;42.666;23.264;2023-04-08T01:35:59;94471.50;;;5.37;nan
6345;BME280;3205;42.666;23.264;2023-04-08T01:38:27;94467.25;;;5.41;nan
6345;BME280;3205;42.666;23.264;2023-04-08T01:40:54;94468.00;;;5.42;nan
6345;BME280;3205;42.666;23.264;2023-04-08T01:43:23;94463.72;;;5.46;nan
6345;BME280;3205;42.666;23.264;2023-04-08T01:45:50;94466.28;;;5.37;nan
6345;BME280;3205;42.666;23.264;2023-04-08T01:48:23;94462.09;;;5.36;nan
6345;BME280;3205;42.666;23.264;2023-04-08T01:50:49;94478.13;;;5.35;nan
6345;BME280;3205;42.666;23.264;2023-04-08T01:53:16;94467.66;;;5.35;nan
6345;BME280;3205;42.666;23.264;2023-04-08T01:55:43;94473.84;;;5.39;nan
6345;BME280;3205;42.666;23.264;2023-04-08T01:58:14;94467.78;;;5.52;nan
6345;BME280;3205;42.666;23.264;2023-04-08T02:00:43;94473.44;;;5.45;nan
6345;BME280;3205;42.666;23.264;2023-04-08T02:03:11;94478.38;;;5.47;nan
6345;BME280;3205;42.666;23.264;2023-04-08T02:05:38;94486.66;;;5.40;nan
6345;BME280;3205;42.666;23.264;2023-04-08T02:08:04;94489.84;;;5.37;nan
6345;BME280;3205;42.666;23.264;2023-04-08T02:10:30;94491.47;;;5.25;nan
6345;BME280;3205;42.666;23.264;2023-04-08T02:12:56;94487.94;;;5.29;nan
6345;BME280;3205;42.666;23.264;2023-04-08T02:15:25;94496.97;;;5.37;nan
6345;BME280;3205;42.666;23.264;2023-04-08T02:17:54;94490.03;;;5.41;nan
6345;BME280;3205;42.666;23.264;2023-04-08T02:20:29;94487.41;;;5.41;nan
6345;BME280;3205;42.666;23.264;2023-04-08T02:23:02;94490.34;;;5.39;nan
6345;BME280;3205;42.666;23.264;2023-04-08T02:25:34;94488.25;;;5.50;nan
6345;BME280;3205;42.666;23.264;2023-04-08T02:28:02;94500.34;;;5.37;nan
6345;BME280;3205;42.666;23.264;2023-04-08T02:30:30;94492.59;;;5.32;nan
6345;BME280;3205;42.666;23.264;2023-04-08T02:32:58;94487.38;;;5.32;nan
6345;BME280;3205;42.666;23.264;2023-04-08T02:35:26;94489.50;;;5.30;nan
6345;BME280;3205;42.666;23.264;2023-04-08T02:37:53;94491.16;;;5.26;nan
6345;BME280;3205;42.666;23.264;2023-04-08T02:40:23;94493.84;;;5.35;nan
6345;BME280;3205;42.666;23.264;2023-04-08T02:42:49;94493.31;;;5.24;nan
6345;BME280;3205;42.666;23.264;2023-04-08T02:45:16;94492.78;;;5.36;nan
6345;BME280;3205;42.666;23.264;2023-04-08T02:47:43;94492.59;;;5.32;nan
6345;BME280;3205;42.666;23.264;2023-04-08T02:50:09;94485.63;;;5.28;nan
6345;BME280;3205;42.666;23.264;2023-04-08T02:52:35;94489.44;;;5.22;nan
6345;BME280;3205;42.666;23.264;2023-04-08T02:55:02;94484.97;;;5.22;nan
6345;BME280;3205;42.666;23.264;2023-04-08T02:57:30;94481.94;;;5.29;nan
6345;BME280;3205;42.666;23.264;2023-04-08T02:59:57;94491.94;;;5.27;nan
6345;BME280;3205;42.666;23.264;2023-04-08T03:02:23;94488.69;;;5.21;nan
6345;BME280;3205;42.666;23.264;2023-04-08T03:04:49;94495.44;;;5.22;nan
6345;BME280;3205;42.666;23.264;2023-04-08T03:07:15;94493.31;;;5.24;nan
6345;BME280;3205;42.666;23.264;2023-04-08T03:09:41;94484.06;;;5.27;nan
6345;BME280;3205;42.666;23.264;2023-04-08T03:12:08;94493.91;;;5.21;nan
6345;BME280;3205;42.666;23.264;2023-04-08T03:14:34;94488.75;;;5.16;nan
6345;BME280;3205;42.666;23.264;2023-04-08T03:17:00;94485.59;;;5.06;nan
6345;BME280;3205;42.666;23.264;2023-04-08T03:19:26;94486.69;;;5.05;nan
6345;BME280;3205;42.666;23.264;2023-04-08T03:21:53;94488.13;;;5.11;nan
6345;BME280;3205;42.666;23.264;2023-04-08T03:24:19;94491.63;;;5.07;nan
6345;BME280;3205;42.666;23.264;2023-04-08T03:26:45;94487.34;;;5.11;nan
6345;BME280;3205;42.666;23.264;2023-04-08T03:29:12;94495.25;;;5.19;nan
6345;BME280;3205;42.666;23.264;2023-04-08T03:31:38;94490.50;;;5.21;nan
6345;BME280;3205;42.666;23.264;2023-04-08T03:34:04;94490.31;;;5.17;nan
6345;BME280;3205;42.666;23.264;2023-04-08T03:36:30;94497.13;;;5.18;nan
6345;BME280;3205;42.666;23.264;2023-04-08T03:38:57;94498.19;;;5.17;nan
6345;BME280;3205;42.666;23.264;2023-04-08T03:41:23;94497.22;;;5.13;nan
6345;BME280;3205;42.666;23.264;2023-04-08T03:43:49;94495.75;;;5.21;nan
6345;BME280;3205;42.666;23.264;2023-04-08T03:46:15;94496.44;;;5.13;nan
6345;BME280;3205;42.666;23.264;2023-04-08T03:48:41;94498.88;;;5.10;nan
6345;BME280;3205;42.666;23.264;2023-04-08T03:51:07;94495.50;;;5.09;nan
6345;BME280;3205;42.666;23.264;2023-04-08T03:53:33;94495.50;;;5.09;nan
6345;BME280;3205;42.666;23.264;2023-04-08T03:56:00;94489.19;;;5.10;nan
6345;BME280;3205;42.666;23.264;2023-04-08T03:58:28;94488.31;;;5.01;nan
6345;BME280;3205;42.666;23.264;2023-04-08T04:00:54;94496.06;;;5.06;nan
6345;BME280;3205;42.666;23.264;2023-04-08T04:03:20;94484.25;;;5.09;nan
6345;BME280;3205;42.666;23.264;2023-04-08T04:05:47;94489.94;;;5.11;nan
6345;BME280;3205;42.666;23.264;2023-04-08T04:08:13;94484.84;;;5.06;nan
6345;BME280;3205;42.666;23.264;2023-04-08T04:10:39;94486.97;;;5.04;nan
6345;BME280;3205;42.666;23.264;2023-04-08T04:13:06;94489.06;;;5.15;nan
6345;BME280;3205;42.666;23.264;2023-04-08T04:15:32;94485.50;;;5.11;nan
6345;BME280;3205;42.666;23.264;2023-04-08T04:17:58;94492.88;;;5.09;nan
6345;BME280;3205;42.666;23.264;2023-04-08T04:20:25;94497.88;;;5.19;nan
6345;BME280;3205;42.666;23.264;2023-04-08T04:22:51;94502.94;;;5.15;nan
6345;BME280;3205;42.666;23.264;2023-04-08T04:25:17;94498.47;;;5.16;nan
6345;BME280;3205;42.666;23.264;2023-04-08T04:27:43;94497.63;;;5.07;nan
6345;BME280;3205;42.666;23.264;2023-04-08T04:30:10;94497.69;;;5.15;nan
6345;BME280;3205;42.666;23.264;2023-04-08T04:32:39;94498.31;;;5.13;nan
6345;BME280;3205;42.666;23.264;2023-04-08T04:35:06;94503.03;;;5.24;nan
6345;BME280;3205;42.666;23.264;2023-04-08T04:37:32;94506.72;;;5.23;nan
6345;BME280;3205;42.666;23.264;2023-04-08T04:39:58;94505.16;;;5.22;nan
6345;BME280;3205;42.666;23.264;2023-04-08T04:42:24;94501.47;;;5.23;nan
6345;BME280;3205;42.666;23.264;2023-04-08T04:44:51;94510.19;;;5.32;nan
6345;BME280;3205;42.666;23.264;2023-04-08T04:47:17;94507.44;;;5.37;nan
6345;BME280;3205;42.666;23.264;2023-04-08T04:49:44;94501.72;;;5.35;nan
6345;BME280;3205;42.666;23.264;2023-04-08T04:52:10;94503.56;;;5.34;nan
6345;BME280;3205;42.666;23.264;2023-04-08T04:54:36;94505.81;;;5.49;nan
6345;BME280;3205;42.666;23.264;2023-04-08T04:57:05;94508.75;;;5.70;nan
6345;BME280;3205;42.666;23.264;2023-04-08T04:59:31;94518.50;;;5.69;nan
6345;BME280;3205;42.666;23.264;2023-04-08T05:01:57;94511.06;;;5.71;nan
6345;BME280;3205;42.666;23.264;2023-04-08T05:04:23;94516.44;;;5.80;nan
6345;BME280;3205;42.666;23.264;2023-04-08T05:06:50;94510.75;;;5.86;nan
6345;BME280;3205;42.666;23.264;2023-04-08T05:09:16;94510.75;;;5.86;nan
6345;BME280;3205;42.666;23.264;2023-04-08T05:11:42;94518.06;;;5.97;nan
6345;BME280;3205;42.666;23.264;2023-04-08T05:14:08;94515.84;;;6.13;nan
6345;BME280;3205;42.666;23.264;2023-04-08T05:16:34;94522.22;;;6.20;nan
6345;BME280;3205;42.666;23.264;2023-04-08T05:19:01;94519.31;;;6.30;nan
6345;BME280;3205;42.666;23.264;2023-04-08T05:21:27;94526.19;;;6.48;nan
6345;BME280;3205;42.666;23.264;2023-04-08T05:23:53;94521.41;;;6.50;nan
6345;BME280;3205;42.666;23.264;2023-04-08T05:26:19;94518.81;;;6.59;nan
6345;BME280;3205;42.666;23.264;2023-04-08T05:28:46;94520.44;;;6.76;nan
6345;BME280;3205;42.666;23.264;2023-04-08T05:31:14;94519.84;;;6.88;nan
6345;BME280;3205;42.666;23.264;2023-04-08T05:33:40;94523.72;;;6.99;nan
6345;BME280;3205;42.666;23.264;2023-04-08T05:36:06;94525.44;;;7.20;nan
6345;BME280;3205;42.666;23.264;2023-04-08T05:38:33;94523.31;;;7.47;nan
6345;BME280;3205;42.666;23.264;2023-04-08T05:40:59;94533.22;;;7.67;nan
6345;BME280;3205;42.666;23.264;2023-04-08T05:43:25;94535.19;;;7.96;nan
6345;BME280;3205;42.666;23.264;2023-04-08T05:45:51;94530.38;;;8.14;nan
6345;BME280;3205;42.666;23.264;2023-04-08T05:48:18;94529.78;;;8.17;nan
6345;BME280;3205;42.666;23.264;2023-04-08T05:50:44;94529.91;;;8.29;nan
6345;BME280;3205;42.666;23.264;2023-04-08T05:53:13;94527.22;;;8.38;nan
6345;BME280;3205;42.666;23.264;2023-04-08T05:55:40;94531.88;;;8.41;nan
6345;BME280;3205;42.666;23.264;2023-04-08T05:58:06;94533.72;;;8.49;nan
6345;BME280;3205;42.666;23.264;2023-04-08T06:00:32;94526.09;;;8.56;nan
6345;BME280;3205;42.666;23.264;2023-04-08T06:02:58;94527.47;;;8.62;nan
6345;BME280;3205;42.666;23.264;2023-04-08T06:05:24;94525.03;;;8.57;nan
6345;BME280;3205;42.666;23.264;2023-04-08T06:07:50;94527.19;;;8.55;nan
6345;BME280;3205;42.666;23.264;2023-04-08T06:10:17;94522.53;;;8.52;nan
6345;BME280;3205;42.666;23.264;2023-04-08T06:12:43;94527.09;;;8.72;nan
6345;BME280;3205;42.666;23.264;2023-04-08T06:15:09;94517.13;;;8.85;nan
6345;BME280;3205;42.666;23.264;2023-04-08T06:17:36;94523.41;;;9.01;nan
6345;BME280;3205;42.666;23.264;2023-04-08T06:20:03;94532.03;;;9.10;nan
6345;BME280;3205;42.666;23.264;2023-04-08T06:22:29;94527.50;;;9.40;nan
6345;BME280;3205;42.666;23.264;2023-04-08T06:24:55;94527.84;;;9.79;nan
6345;BME280;3205;42.666;23.264;2023-04-08T06:27:21;94535.13;;;10.02;nan
6345;BME280;3205;42.666;23.264;2023-04-08T06:29:48;94532.44;;;10.34;nan
6345;BME280;3205;42.666;23.264;2023-04-08T06:32:14;94529.63;;;10.51;nan
6345;BME280;3205;42.666;23.264;2023-04-08T06:34:40;94536.72;;;10.83;nan
6345;BME280;3205;42.666;23.264;2023-04-08T06:37:07;94532.28;;;10.75;nan
6345;BME280;3205;42.666;23.264;2023-04-08T06:39:33;94539.28;;;10.92;nan
6345;BME280;3205;42.666;23.264;2023-04-08T06:41:59;94529.97;;;10.62;nan
6345;BME280;3205;42.666;23.264;2023-04-08T06:44:25;94534.56;;;10.41;nan
6345;BME280;3205;42.666;23.264;2023-04-08T06:46:52;94537.84;;;10.38;nan
6345;BME280;3205;42.666;23.264;2023-04-08T06:49:18;94540.72;;;10.45;nan
6345;BME280;3205;42.666;23.264;2023-04-08T06:51:44;94539.84;;;10.41;nan
6345;BME280;3205;42.666;23.264;2023-04-08T06:54:11;94543.22;;;10.30;nan
6345;BME280;3205;42.666;23.264;2023-04-08T06:56:37;94541.56;;;10.25;nan
6345;BME280;3205;42.666;23.264;2023-04-08T06:59:03;94537.63;;;9.99;nan
6345;BME280;3205;42.666;23.264;2023-04-08T07:01:29;94540.75;;;9.92;nan
6345;BME280;3205;42.666;23.264;2023-04-08T07:03:57;94540.03;;;9.83;nan
6345;BME280;3205;42.666;23.264;2023-04-08T07:06:23;94536.50;;;9.79;nan
6345;BME280;3205;42.666;23.264;2023-04-08T07:08:49;94540.00;;;9.92;nan
6345;BME280;3205;42.666;23.264;2023-04-08T07:11:15;94543.91;;;10.06;nan
6345;BME280;3205;42.666;23.264;2023-04-08T07:13:41;94546.91;;;10.37;nan
6345;BME280;3205;42.666;23.264;2023-04-08T07:16:08;94547.16;;;10.68;nan
6345;BME280;3205;42.666;23.264;2023-04-08T07:18:34;94550.94;;;10.91;nan
6345;BME280;3205;42.666;23.264;2023-04-08T07:21:01;94546.44;;;11.15;nan
6345;BME280;3205;42.666;23.264;2023-04-08T07:23:27;94555.47;;;11.26;nan
6345;BME280;3205;42.666;23.264;2023-04-08T07:25:53;94551.91;;;11.46;nan
6345;BME280;3205;42.666;23.264;2023-04-08T07:28:20;94557.09;;;11.42;nan
6345;BME280;3205;42.666;23.264;2023-04-08T07:30:46;94553.91;;;11.61;nan
6345;BME280;3205;42.666;23.264;2023-04-08T07:33:12;94569.22;;;11.79;nan
6345;BME280;3205;42.666;23.264;2023-04-08T07:35:39;94565.63;;;11.99;nan
6345;BME280;3205;42.666;23.264;2023-04-08T07:38:07;94558.47;;;12.27;nan
6345;BME280;3205;42.666;23.264;2023-04-08T07:40:35;94558.78;;;12.68;nan
6345;BME280;3205;42.666;23.264;2023-04-08T07:43:01;94567.47;;;12.53;nan
6345;BME280;3205;42.666;23.264;2023-04-08T07:45:28;94568.28;;;11.99;nan
6345;BME280;3205;42.666;23.264;2023-04-08T07:47:54;94567.91;;;12.28;nan
6345;BME280;3205;42.666;23.264;2023-04-08T07:50:20;94573.59;;;12.69;nan
6345;BME280;3205;42.666;23.264;2023-04-08T07:52:47;94578.28;;;12.60;nan
6345;BME280;3205;42.666;23.264;2023-04-08T07:55:13;94587.47;;;12.35;nan
6345;BME280;3205;42.666;23.264;2023-04-08T07:57:40;94585.63;;;11.96;nan
6345;BME280;3205;42.666;23.264;2023-04-08T08:00:07;94586.81;;;12.26;nan
6345;BME280;3205;42.666;23.264;2023-04-08T08:02:35;94582.31;;;12.27;nan
6345;BME280;3205;42.666;23.264;2023-04-08T08:05:01;94586.28;;;12.21;nan
6345;BME280;3205;42.666;23.264;2023-04-08T08:07:27;94577.59;;;11.33;nan
6345;BME280;3205;42.666;23.264;2023-04-08T08:09:54;94580.16;;;10.94;nan
6345;BME280;3205;42.666;23.264;2023-04-08T08:12:20;94581.13;;;11.13;nan
6345;BME280;3205;42.666;23.264;2023-04-08T08:14:46;94588.09;;;11.06;nan
6345;BME280;3205;42.666;23.264;2023-04-08T08:17:13;94581.47;;;11.36;nan
6345;BME280;3205;42.666;23.264;2023-04-08T08:19:39;94584.44;;;11.70;nan
6345;BME280;3205;42.666;23.264;2023-04-08T08:22:05;94583.53;;;11.90;nan
6345;BME280;3205;42.666;23.264;2023-04-08T08:24:31;94595.47;;;12.23;nan
6345;BME280;3205;42.666;23.264;2023-04-08T08:26:57;94590.81;;;12.20;nan
6345;BME280;3205;42.666;23.264;2023-04-08T08:29:24;94589.13;;;12.00;nan
6345;BME280;3205;42.666;23.264;2023-04-08T08:31:50;94586.91;;;11.51;nan
6345;BME280;3205;42.666;23.264;2023-04-08T08:34:16;94590.31;;;11.28;nan
6345;BME280;3205;42.666;23.264;2023-04-08T08:36:42;94588.31;;;11.13;nan
6345;BME280;3205;42.666;23.264;2023-04-08T08:39:08;94581.91;;;10.90;nan
6345;BME280;3205;42.666;23.264;2023-04-08T08:41:34;94584.25;;;11.04;nan
6345;BME280;3205;42.666;23.264;2023-04-08T08:44:01;94587.44;;;11.33;nan
6345;BME280;3205;42.666;23.264;2023-04-08T08:46:28;94579.13;;;11.46;nan
6345;BME280;3205;42.666;23.264;2023-04-08T08:48:55;94581.13;;;11.49;nan
6345;BME280;3205;42.666;23.264;2023-04-08T08:51:22;94576.19;;;11.60;nan
6345;BME280;3205;42.666;23.264;2023-04-08T08:53:49;94581.59;;;11.63;nan
6345;BME280;3205;42.666;23.264;2023-04-08T08:56:15;94575.66;;;11.30;nan
6345;BME280;3205;42.666;23.264;2023-04-08T08:58:41;94593.69;;;11.76;nan
6345;BME280;3205;42.666;23.264;2023-04-08T09:01:33;94586.50;;;11.88;nan
6345;BME280;3205;42.666;23.264;2023-04-08T09:04:08;94584.81;;;12.35;nan
6345;BME280;3205;42.666;23.264;2023-04-08T09:06:34;94579.78;;;12.46;nan
6345;BME280;3205;42.666;23.264;2023-04-08T09:09:00;94584.19;;;13.12;nan
6345;BME280;3205;42.666;23.264;2023-04-08T09:11:28;94587.53;;;13.74;nan
6345;BME280;3205;42.666;23.264;2023-04-08T09:13:56;94586.72;;;14.61;nan
6345;BME280;3205;42.666;23.264;2023-04-08T09:16:22;94587.31;;;14.95;nan
6345;BME280;3205;42.666;23.264;2023-04-08T09:18:49;94583.72;;;15.52;nan
6345;BME280;3205;42.666;23.264;2023-04-08T09:21:16;94576.75;;;16.54;nan
6345;BME280;3205;42.666;23.264;2023-04-08T09:23:44;94575.78;;;17.05;nan
6345;BME280;3205;42.666;23.264;2023-04-08T09:26:11;94578.97;;;16.81;nan
6345;BME280;3205;42.666;23.264;2023-04-08T09:28:39;94574.56;;;18.63;nan
6345;BME280;3205;42.666;23.264;2023-04-08T09:31:19;94572.84;;;18.21;nan
6345;BME280;3205;42.666;23.264;2023-04-08T09:33:45;94577.41;;;18.17;nan
6345;BME280;3205;42.666;23.264;2023-04-08T09:36:13;94567.38;;;17.46;nan
6345;BME280;3205;42.666;23.264;2023-04-08T09:38:40;94571.47;;;16.57;nan
6345;BME280;3205;42.666;23.264;2023-04-08T09:41:07;94560.19;;;16.09;nan
6345;BME280;3205;42.666;23.264;2023-04-08T09:43:40;94558.16;;;15.73;nan
6345;BME280;3205;42.666;23.264;2023-04-08T09:46:10;94559.69;;;15.03;nan
6345;BME280;3205;42.666;23.264;2023-04-08T09:48:39;94556.94;;;15.41;nan
6345;BME280;3205;42.666;23.264;2023-04-08T09:51:11;94561.31;;;14.25;nan
6345;BME280;3205;42.666;23.264;2023-04-08T09:53:46;94559.66;;;14.02;nan
6345;BME280;3205;42.666;23.264;2023-04-08T09:56:13;94561.94;;;14.19;nan
6345;BME280;3205;42.666;23.264;2023-04-08T09:58:45;94547.69;;;15.13;nan
6345;BME280;3205;42.666;23.264;2023-04-08T10:01:15;94545.56;;;15.99;nan
6345;BME280;3205;42.666;23.264;2023-04-08T10:03:48;94558.09;;;15.44;nan
6345;BME280;3205;42.666;23.264;2023-04-08T10:06:16;94550.44;;;14.53;nan
6345;BME280;3205;42.666;23.264;2023-04-08T10:08:43;94551.59;;;14.33;nan
6345;BME280;3205;42.666;23.264;2023-04-08T10:11:10;94543.78;;;14.06;nan
6345;BME280;3205;42.666;23.264;2023-04-08T10:13:36;94543.84;;;13.71;nan
6345;BME280;3205;42.666;23.264;2023-04-08T10:16:22;94539.03;;;14.33;nan
6345;BME280;3205;42.666;23.264;2023-04-08T10:18:50;94535.84;;;15.10;nan
6345;BME280;3205;42.666;23.264;2023-04-08T10:21:33;94540.41;;;15.10;nan
6345;BME280;3205;42.666;23.264;2023-04-08T10:24:00;94542.22;;;14.20;nan
6345;BME280;3205;42.666;23.264;2023-04-08T10:26:32;94544.91;;;14.05;nan
6345;BME280;3205;42.666;23.264;2023-04-08T10:29:30;94536.97;;;13.21;nan
6345;BME280;3205;42.666;23.264;2023-04-08T10:31:56;94542.31;;;12.47;nan
6345;BME280;3205;42.666;23.264;2023-04-08T10:34:23;94546.69;;;12.55;nan
6345;BME280;3205;42.666;23.264;2023-04-08T10:36:51;94532.66;;;12.55;nan
6345;BME280;3205;42.666;23.264;2023-04-08T10:39:18;94535.00;;;12.29;nan
6345;BME280;3205;42.666;23.264;2023-04-08T10:41:45;94533.25;;;12.48;nan
6345;BME280;3205;42.666;23.264;2023-04-08T10:44:15;94529.53;;;12.22;nan
6345;BME280;3205;42.666;23.264;2023-04-08T10:46:41;94522.66;;;12.33;nan
6345;BME280;3205;42.666;23.264;2023-04-08T10:49:08;94511.47;;;12.70;nan
6345;BME280;3205;42.666;23.264;2023-04-08T10:51:34;94512.38;;;13.05;nan
6345;BME280;3205;42.666;23.264;2023-04-08T10:54:05;94500.81;;;13.66;nan
6345;BME280;3205;42.666;23.264;2023-04-08T10:56:32;94517.88;;;13.84;nan
6345;BME280;3205;42.666;23.264;2023-04-08T10:58:59;94511.34;;;13.43;nan
6345;BME280;3205;42.666;23.264;2023-04-08T11:01:25;94521.00;;;13.02;nan
6345;BME280;3205;42.666;23.264;2023-04-08T11:03:51;94502.41;;;12.86;nan
6345;BME280;3205;42.666;23.264;2023-04-08T11:06:17;94498.53;;;12.68;nan
6345;BME280;3205;42.666;23.264;2023-04-08T11:08:44;94489.72;;;12.80;nan
6345;BME280;3205;42.666;23.264;2023-04-08T11:11:10;94486.38;;;12.52;nan
6345;BME280;3205;42.666;23.264;2023-04-08T11:13:39;94483.69;;;12.64;nan
6345;BME280;3205;42.666;23.264;2023-04-08T11:16:06;94481.25;;;13.21;nan
6345;BME280;3205;42.666;23.264;2023-04-08T11:18:33;94498.56;;;12.84;nan
6345;BME280;3205;42.666;23.264;2023-04-08T11:21:00;94482.91;;;13.10;nan
6345;BME280;3205;42.666;23.264;2023-04-08T11:23:26;94479.47;;;12.94;nan
6345;BME280;3205;42.666;23.264;2023-04-08T11:25:53;94476.81;;;12.78;nan
6345;BME280;3205;42.666;23.264;2023-04-08T11:28:20;94476.91;;;12.97;nan
6345;BME280;3205;42.666;23.264;2023-04-08T11:30:49;94461.94;;;13.39;nan
6345;BME280;3205;42.666;23.264;2023-04-08T11:33:15;94474.63;;;13.30;nan
6345;BME280;3205;42.666;23.264;2023-04-08T11:35:42;94460.47;;;12.61;nan
6345;BME280;3205;42.666;23.264;2023-04-08T11:38:09;94475.50;;;12.26;nan
6345;BME280;3205;42.666;23.264;2023-04-08T11:40:35;94453.47;;;12.53;nan
6345;BME280;3205;42.666;23.264;2023-04-08T11:43:08;94449.94;;;13.11;nan
6345;BME280;3205;42.666;23.264;2023-04-08T11:45:37;94456.03;;;13.64;nan
6345;BME280;3205;42.666;23.264;2023-04-08T11:48:09;94459.03;;;12.63;nan
6345;BME280;3205;42.666;23.264;2023-04-08T11:50:35;94451.75;;;12.45;nan
6345;BME280;3205;42.666;23.264;2023-04-08T11:53:01;94467.56;;;12.26;nan
6345;BME280;3205;42.666;23.264;2023-04-08T11:55:28;94445.50;;;12.22;nan
6345;BME280;3205;42.666;23.264;2023-04-08T11:57:56;94444.81;;;12.25;nan
6345;BME280;3205;42.666;23.264;2023-04-08T12:00:22;94454.16;;;11.92;nan
6345;BME280;3205;42.666;23.264;2023-04-08T12:02:50;94446.72;;;11.97;nan
6345;BME280;3205;42.666;23.264;2023-04-08T12:05:17;94426.50;;;12.05;nan
6345;BME280;3205;42.666;23.264;2023-04-08T12:07:43;94424.94;;;11.88;nan
6345;BME280;3205;42.666;23.264;2023-04-08T12:10:10;94423.59;;;11.94;nan
6345;BME280;3205;42.666;23.264;2023-04-08T12:12:36;94423.25;;;12.11;nan
6345;BME280;3205;42.666;23.264;2023-04-08T12:15:02;94417.38;;;12.18;nan
6345;BME280;3205;42.666;23.264;2023-04-08T12:17:28;94418.31;;;12.25;nan
6345;BME280;3205;42.666;23.264;2023-04-08T12:19:54;94432.09;;;11.88;nan
6345;BME280;3205;42.666;23.264;2023-04-08T12:22:26;94421.56;;;12.03;nan
6345;BME280;3205;42.666;23.264;2023-04-08T12:24:52;94417.31;;;11.87;nan
6345;BME280;3205;42.666;23.264;2023-04-08T12:27:18;94425.41;;;12.06;nan
6345;BME280;3205;42.666;23.264;2023-04-08T12:29:44;94420.47;;;12.20;nan
6345;BME280;3205;42.666;23.264;2023-04-08T12:32:11;94424.78;;;12.12;nan
6345;BME280;3205;42.666;23.264;2023-04-08T12:34:37;94408.22;;;12.15;nan
6345;BME280;3205;42.666;23.264;2023-04-08T12:37:03;94410.88;;;12.31;nan
6345;BME280;3205;42.666;23.264;2023-04-08T12:39:30;94409.00;;;12.47;nan
6345;BME280;3205;42.666;23.264;2023-04-08T12:41:57;94412.84;;;12.49;nan
6345;BME280;3205;42.666;23.264;2023-04-08T12:44:23;94412.50;;;12.20;nan
6345;BME280;3205;42.666;23.264;2023-04-08T12:46:49;94414.19;;;11.97;nan
6345;BME280;3205;42.666;23.264;2023-04-08T12:49:16;94420.84;;;11.91;nan
6345;BME280;3205;42.666;23.264;2023-04-08T12:51:42;94415.66;;;12.10;nan
6345;BME280;3205;42.666;23.264;2023-04-08T12:54:08;94427.97;;;12.18;nan
6345;BME280;3205;42.666;23.264;2023-04-08T12:56:34;94435.38;;;11.97;nan
6345;BME280;3205;42.666;23.264;2023-04-08T12:59:00;94447.44;;;11.16;nan
6345;BME280;3205;42.666;23.264;2023-04-08T13:01:27;94439.13;;;10.54;nan
6345;BME280;3205;42.666;23.264;2023-04-08T13:03:53;94434.78;;;10.14;nan
6345;BME280;3205;42.666;23.264;2023-04-08T13:06:19;94435.00;;;10.21;nan
6345;BME280;3205;42.666;23.264;2023-04-08T13:08:45;94431.28;;;10.58;nan
6345;BME280;3205;42.666;23.264;2023-04-08T13:11:12;94427.75;;;10.90;nan
6345;BME280;3205;42.666;23.264;2023-04-08T13:13:39;94421.44;;;11.06;nan
6345;BME280;3205;42.666;23.264;2023-04-08T13:16:05;94426.28;;;11.04;nan
6345;BME280;3205;42.666;23.264;2023-04-08T13:18:34;94422.47;;;11.41;nan
6345;BME280;3205;42.666;23.264;2023-04-08T13:21:00;94417.81;;;11.77;nan
6345;BME280;3205;42.666;23.264;2023-04-08T13:23:27;94414.81;;;12.06;nan
6345;BME280;3205;42.666;23.264;2023-04-08T13:25:53;94405.13;;;12.13;nan
6345;BME280;3205;42.666;23.264;2023-04-08T13:28:19;94419.91;;;11.99;nan
6345;BME280;3205;42.666;23.264;2023-04-08T13:30:45;94413.59;;;12.03;nan
6345;BME280;3205;42.666;23.264;2023-04-08T13:33:11;94423.25;;;12.11;nan
6345;BME280;3205;42.666;23.264;2023-04-08T13:35:37;94416.94;;;12.31;nan
6345;BME280;3205;42.666;23.264;2023-04-08T13:38:04;94414.03;;;12.67;nan
6345;BME280;3205;42.666;23.264;2023-04-08T13:40:30;94415.22;;;12.69;nan